Aérodrome :
LOGIN :

S'inscrire | Disclaimer

   EN    FR    IT 

 










Légende :    VFR   VFR Marginal   IFR   IFR Intensif   IFR Très Intensif
Visi : 
Plafond : 
>= 8 km
>= 3000ft
5 à 8 km
1000 à 3000 ft
1500m à 5 km
500 à 1000 ft
800 à 1500m
200 à 500 ft
< 800m
< 200 ft
Symboles :   Orages  Brouillard  Fortes neiges  Fortes précipitations  Vent > 20 kt
SIGMETs :   Divers  Orages  Givrage  Turbulence  Onde Orograph.  Cendres Volcan.






- Altitude de l'aérodrome : 38 ft
- Code IATA : TRE


EGPU - Tiree

DERNIER METAR :
  • 010720Z AUTO 21009KT 7000 OVC009/// 08/07 Q1025

METARs EXPIRÉS :
  • 010650Z AUTO 22010KT 180V240 9999 BKN014/// 08/06 Q1025
  • 010620Z AUTO 22008KT 9999 BKN018/// 08/06 Q1026
  • 010550Z AUTO 23009KT 200V260 9999 BKN021/// BKN032/// 09/05 Q1026
  • 010520Z AUTO 21006KT 9999 SCT032/// BKN041/// 08/05 Q1026
  • 010450Z AUTO 24006KT 9999 BKN039/// 08/04 Q1026

TAF AMD TAF EGPU
Valide du 01 à 07h jusqu'au 01 à 15h UTC


010712Z 0107/0115 25009KT 9999 SCT012
TEMPO 0107/0115 8000 -DZ BKN008
PROB30
TEMPO 0107/0115 4000 DZ BKN004



MET'MAP, la Météo Aéronautique d'un coup d'oeil ! - Copyright ORBIFLY Décembre 2007 - Disclaimer

ORBIFLY MET'MAP TEAM :

Programmation & Développement : Alexandra Zaïnal
Sur une idée originale de : Baudouin d'Aumeries
Assistance à la programmation : Marc-Olivier Méhu
Soutien technique & logistique : Manuel Goepfert

Contact : metmap@orbifly.com




SOURCES & CREDITS :

   NOAA